Time;durP1;ratioP1;P1;durP2;ratioP2;P2;SDS_P1;SDS_P2;PMS_P1;PMS_P2;Temp;Humidity;BMP_temperature;BMP_pressure;BME280_temperature;BME280_humidity;BME280_pressure;Samples;Min_cycle;Max_cycle;Signal;HPM_P1;HPM_P2
2023/06/18 00:00:33;;;;;;;7.82;6.35;;;25.60;74.30;;;;;;5064217;28;20294;-39
2023/06/18 00:03:07;;;;;;;7.88;6.47;;;25.60;74.40;;;;;;5063939;28;20548;-39
2023/06/18 00:05:34;;;;;;;9.57;6.35;;;25.50;74.30;;;;;;5064102;28;20478;-40
2023/06/18 00:08:06;;;;;;;7.05;6.35;;;25.50;74.40;;;;;;5063017;28;20268;-39
2023/06/18 00:10:36;;;;;;;6.85;6.25;;;25.50;74.40;;;;;;5063844;28;20299;-39
2023/06/18 00:13:04;;;;;;;7.63;6.57;;;25.50;74.40;;;;;;5064389;28;20258;-38
2023/06/18 00:15:32;;;;;;;6.97;6.38;;;25.40;74.20;;;;;;5063857;28;20211;-38
2023/06/18 00:18:01;;;;;;;7.07;6.38;;;25.40;74.30;;;;;;5042741;28;20251;-39
2023/06/18 00:20:29;;;;;;;7.93;6.68;;;25.40;74.80;;;;;;5053241;28;20680;-38
2023/06/18 00:22:56;;;;;;;7.47;6.68;;;25.40;74.20;;;;;;5061376;28;20239;-39
2023/06/18 00:25:23;;;;;;;7.78;6.53;;;25.40;74.20;;;;;;5061079;28;20330;-38
2023/06/18 00:27:53;;;;;;;7.22;6.50;;;25.30;74.10;;;;;;5063027;28;20258;-39
2023/06/18 00:30:20;;;;;;;7.38;6.60;;;25.30;74.20;;;;;;5063453;28;20726;-39
2023/06/18 00:32:48;;;;;;;7.55;5.97;;;25.30;74.20;;;;;;5078172;28;20218;-39
2023/06/18 00:35:15;;;;;;;7.13;6.43;;;25.30;74.20;;;;;;5060295;28;20983;-33
2023/06/18 00:37:47;;;;;;;7.13;6.53;;;25.20;74.20;;;;;;5070933;28;20215;-33
2023/06/18 00:40:16;;;;;;;7.68;6.93;;;25.20;74.20;;;;;;5059277;28;20207;-33
2023/06/18 00:42:52;;;;;;;7.55;6.78;;;25.20;74.20;;;;;;5061061;28;20359;-33
2023/06/18 00:45:20;;;;;;;7.32;6.63;;;25.20;74.20;;;;;;5063036;28;20251;-33
2023/06/18 00:47:48;;;;;;;8.43;6.78;;;25.20;74.20;;;;;;5060699;28;20216;-33
2023/06/18 00:50:17;;;;;;;6.93;6.32;;;25.10;74.20;;;;;;5062855;28;20199;-33
2023/06/18 00:52:59;;;;;;;8.27;6.63;;;25.10;74.20;;;;;;5062569;28;20191;-33
2023/06/18 00:55:28;;;;;;;7.63;6.90;;;25.10;74.20;;;;;;5062327;28;20289;-33
2023/06/18 00:57:59;;;;;;;10.48;6.55;;;25.10;74.30;;;;;;5060860;28;20624;-33
2023/06/18 01:00:32;;;;;;;9.68;6.45;;;25.00;74.20;;;;;;5073651;28;20376;-33
2023/06/18 01:03:16;;;;;;;7.18;6.47;;;25.00;74.20;;;;;;5063342;28;20305;-33
2023/06/18 01:06:04;;;;;;;7.47;6.68;;;25.00;74.20;;;;;;5060532;28;20227;-33
2023/06/18 01:08:33;;;;;;;7.30;6.53;;;25.00;74.30;;;;;;5063808;28;20199;-33
2023/06/18 01:11:05;;;;;;;7.25;6.50;;;24.90;74.20;;;;;;5059275;28;20627;-33
2023/06/18 01:13:36;;;;;;;7.43;6.72;;;24.90;74.30;;;;;;5060764;28;20293;-33
2023/06/18 01:16:06;;;;;;;7.32;6.63;;;24.90;74.30;;;;;;5041490;28;20227;-34
2023/06/18 01:18:44;;;;;;;7.78;6.53;;;24.80;74.30;;;;;;5076096;28;20869;-33
2023/06/18 01:21:18;;;;;;;7.13;6.53;;;24.80;74.20;;;;;;5060195;28;20495;-33
2023/06/18 01:23:58;;;;;;;7.47;6.63;;;24.80;74.40;;;;;;5061257;28;20211;-33
2023/06/18 01:26:29;;;;;;;7.43;6.75;;;24.70;74.40;;;;;;5060163;28;20227;-33
2023/06/18 01:29:00;;;;;;;7.38;6.68;;;24.70;74.10;;;;;;5060471;28;21031;-33
2023/06/18 01:31:36;;;;;;;7.40;6.70;;;24.70;74.10;;;;;;5057347;28;20210;-33
2023/06/18 01:34:06;;;;;;;7.82;6.78;;;24.70;74.20;;;;;;5059184;28;20873;-33
2023/06/18 01:36:47;;;;;;;7.10;6.40;;;24.60;74.10;;;;;;5058597;28;20326;-33
2023/06/18 01:39:22;;;;;;;7.80;6.50;;;24.60;74.30;;;;;;5047166;28;20685;-33
2023/06/18 01:42:00;;;;;;;8.57;6.20;;;24.60;74.10;;;;;;5043253;28;20316;-33
2023/06/18 01:44:31;;;;;;;6.70;6.10;;;24.60;74.20;;;;;;5052348;28;20615;-33
2023/06/18 01:47:03;;;;;;;6.65;6.05;;;24.50;74.10;;;;;;5062049;28;20215;-33
2023/06/18 01:49:32;;;;;;;7.68;6.55;;;24.50;74.10;;;;;;5083022;28;20207;-33
2023/06/18 01:52:03;;;;;;;8.05;6.80;;;24.50;74.20;;;;;;5063920;28;20294;-33
2023/06/18 01:54:31;;;;;;;8.25;7.07;;;24.50;74.20;;;;;;5062620;28;20465;-33
2023/06/18 01:57:02;;;;;;;6.63;6.03;;;24.50;74.10;;;;;;5060589;28;20210;-33
2023/06/18 01:59:29;;;;;;;9.23;6.38;;;24.50;74.20;;;;;;5062678;28;20281;-33
2023/06/18 02:01:56;;;;;;;7.18;6.50;;;24.50;74.10;;;;;;5093655;28;20260;-34
2023/06/18 02:04:28;;;;;;;8.60;6.72;;;24.50;74.20;;;;;;5079883;28;20244;-33
2023/06/18 02:06:59;;;;;;;6.93;6.30;;;24.50;74.30;;;;;;5081032;28;20372;-33
2023/06/18 02:09:27;;;;;;;8.50;6.70;;;24.40;74.10;;;;;;5081151;28;20240;-33
2023/06/18 02:11:56;;;;;;;10.68;6.70;;;24.40;74.10;;;;;;5063319;28;20199;-33
2023/06/18 02:14:25;;;;;;;7.53;6.70;;;24.40;74.20;;;;;;5082994;28;20218;-33
2023/06/18 02:16:55;;;;;;;7.55;6.50;;;24.40;74.20;;;;;;5061383;28;20219;-33
2023/06/18 02:19:24;;;;;;;7.80;7.03;;;24.30;74.00;;;;;;5061075;28;20257;-33
2023/06/18 02:21:56;;;;;;;9.40;6.38;;;24.30;74.10;;;;;;5061532;28;20296;-33
2023/06/18 02:24:26;;;;;;;7.28;6.47;;;24.30;74.20;;;;;;5071668;28;20800;-39
2023/06/18 02:26:53;;;;;;;7.00;6.30;;;24.30;74.00;;;;;;5057214;28;20239;-39
2023/06/18 02:29:20;;;;;;;6.80;6.13;;;24.20;74.10;;;;;;5061270;28;20203;-39
2023/06/18 02:31:50;;;;;;;7.05;6.35;;;24.20;74.10;;;;;;5061481;28;20665;-39
2023/06/18 02:34:19;;;;;;;7.18;6.13;;;24.20;74.10;;;;;;5059728;28;20726;-39
2023/06/18 02:36:49;;;;;;;7.45;6.75;;;24.10;74.10;;;;;;5060144;28;20298;-33
2023/06/18 02:39:19;;;;;;;7.60;6.07;;;24.10;74.00;;;;;;5061263;28;20207;-33
2023/06/18 02:41:49;;;;;;;7.25;6.55;;;24.10;74.00;;;;;;5061726;28;20214;-33
2023/06/18 02:44:19;;;;;;;7.63;6.45;;;24.10;74.00;;;;;;5061977;28;20276;-33
2023/06/18 02:46:49;;;;;;;7.95;6.78;;;24.10;74.00;;;;;;5057390;28;20607;-33
2023/06/18 02:49:16;;;;;;;7.28;6.68;;;24.10;74.10;;;;;;5065288;28;20204;-33
2023/06/18 02:51:48;;;;;;;7.65;6.95;;;24.10;74.10;;;;;;5056843;28;20201;-33
2023/06/18 02:54:18;;;;;;;8.35;6.53;;;24.00;74.00;;;;;;5045416;28;20726;-33
2023/06/18 02:56:50;;;;;;;10.40;7.32;;;24.00;74.10;;;;;;5076026;28;20208;-33
2023/06/18 02:59:19;;;;;;;8.45;7.25;;;24.00;74.10;;;;;;5058173;28;20742;-33
2023/06/18 03:01:48;;;;;;;7.60;6.80;;;24.00;74.20;;;;;;5059589;28;20220;-33
2023/06/18 03:04:20;;;;;;;10.60;7.30;;;24.00;74.20;;;;;;5061701;28;20746;-33
2023/06/18 03:06:47;;;;;;;7.20;6.50;;;24.00;74.40;;;;;;5062004;28;20610;-33
2023/06/18 03:09:19;;;;;;;7.90;7.10;;;23.90;74.20;;;;;;5060448;28;20200;-33
2023/06/18 03:11:48;;;;;;;7.55;6.93;;;23.90;74.20;;;;;;5091982;28;20242;-39
2023/06/18 03:14:20;;;;;;;7.80;7.00;;;23.90;74.20;;;;;;5059037;28;20230;-39
2023/06/18 03:16:56;;;;;;;7.60;6.43;;;23.90;74.30;;;;;;5058948;28;20202;-39
2023/06/18 03:19:28;;;;;;;7.88;7.18;;;23.90;74.40;;;;;;5058314;28;20243;-39
2023/06/18 03:21:58;;;;;;;8.93;7.22;;;23.80;74.20;;;;;;5059764;28;20235;-38
2023/06/18 03:24:30;;;;;;;8.50;7.70;;;23.80;74.30;;;;;;5061942;28;20211;-39
2023/06/18 03:27:00;;;;;;;7.90;7.20;;;23.80;74.40;;;;;;5064263;28;20736;-39
2023/06/18 03:29:30;;;;;;;8.00;6.95;;;23.80;74.40;;;;;;5044348;28;20257;-39
2023/06/18 03:32:00;;;;;;;7.13;6.43;;;23.70;74.40;;;;;;5050015;28;20542;-39
2023/06/18 03:34:27;;;;;;;7.38;6.32;;;23.70;74.40;;;;;;5063214;28;20281;-39
2023/06/18 03:37:00;;;;;;;9.25;7.20;;;23.70;74.40;;;;;;5063340;28;20348;-39
2023/06/18 03:39:27;;;;;;;8.07;6.55;;;23.70;74.40;;;;;;5063519;28;20207;-39
2023/06/18 03:41:55;;;;;;;8.30;7.03;;;23.60;74.40;;;;;;5062278;28;20215;-39
2023/06/18 03:44:29;;;;;;;9.55;7.47;;;23.60;74.40;;;;;;5062715;28;20208;-39
2023/06/18 03:46:59;;;;;;;7.03;6.40;;;23.60;74.50;;;;;;5072272;28;20719;-39
2023/06/18 03:49:27;;;;;;;8.15;6.90;;;23.60;74.50;;;;;;5067537;28;20291;-39
2023/06/18 03:52:01;;;;;;;9.07;7.15;;;23.60;74.60;;;;;;5064759;28;20235;-39
2023/06/18 03:54:31;;;;;;;7.07;6.38;;;23.60;74.60;;;;;;5065104;28;20217;-33
2023/06/18 03:56:59;;;;;;;7.50;6.80;;;23.60;74.60;;;;;;5064839;28;20575;-33
2023/06/18 03:59:28;;;;;;;7.03;6.32;;;23.60;74.60;;;;;;5062837;28;20212;-33
2023/06/18 04:01:56;;;;;;;9.05;6.60;;;23.60;74.50;;;;;;5080051;28;20261;-33
2023/06/18 04:04:23;;;;;;;7.38;6.50;;;23.50;74.50;;;;;;5064537;28;20714;-33
2023/06/18 04:06:53;;;;;;;7.68;6.88;;;23.60;74.60;;;;;;5062974;28;20338;-33
2023/06/18 04:09:20;;;;;;;7.75;6.55;;;23.60;74.60;;;;;;5064765;28;20287;-33
2023/06/18 04:11:48;;;;;;;7.63;6.53;;;23.60;74.70;;;;;;5062079;28;20217;-33
2023/06/18 04:14:15;;;;;;;7.32;6.60;;;23.60;74.60;;;;;;5061480;28;20294;-33
2023/06/18 04:16:45;;;;;;;7.30;6.60;;;23.60;74.70;;;;;;5064101;28;20228;-33
2023/06/18 04:19:17;;;;;;;7.25;6.55;;;23.60;74.80;;;;;;5046682;28;20239;-33
2023/06/18 04:21:48;;;;;;;6.35;5.75;;;23.60;74.80;;;;;;5094899;28;20261;-33
2023/06/18 04:24:15;;;;;;;8.00;6.95;;;23.70;75.00;;;;;;5061869;28;20552;-33
2023/06/18 04:26:43;;;;;;;7.28;6.57;;;23.70;74.90;;;;;;5094212;28;20633;-33
2023/06/18 04:29:15;;;;;;;9.13;6.80;;;23.70;74.90;;;;;;5063578;28;20257;-33
2023/06/18 04:31:47;;;;;;;7.20;6.50;;;23.60;74.80;;;;;;5091956;28;20227;-33
2023/06/18 04:34:19;;;;;;;7.45;6.78;;;23.70;74.90;;;;;;5061105;28;20671;-33
2023/06/18 04:36:48;;;;;;;7.68;6.38;;;23.70;74.90;;;;;;5061291;28;20241;-32
2023/06/18 04:39:18;;;;;;;7.70;6.40;;;23.70;74.90;;;;;;5063050;28;20219;-33
2023/06/18 04:41:45;;;;;;;7.18;6.47;;;23.70;74.90;;;;;;5060616;28;20215;-33
2023/06/18 04:44:13;;;;;;;7.60;6.38;;;23.70;74.90;;;;;;5061921;28;20218;-33
2023/06/18 04:46:41;;;;;;;7.10;6.32;;;23.70;74.90;;;;;;5062540;28;20249;-33
2023/06/18 04:49:11;;;;;;;10.68;6.30;;;23.70;74.90;;;;;;5093197;28;20274;-33
2023/06/18 04:51:43;;;;;;;6.68;5.78;;;23.70;75.00;;;;;;5061802;28;20202;-33
2023/06/18 04:54:11;;;;;;;8.02;5.55;;;23.70;74.70;;;;;;5078237;28;20199;-39
2023/06/18 04:56:38;;;;;;;7.28;5.70;;;23.70;74.80;;;;;;5062650;28;20511;-39
2023/06/18 04:59:06;;;;;;;6.68;5.55;;;23.70;74.80;;;;;;5060611;28;20204;-39
2023/06/18 05:01:38;;;;;;;7.28;5.68;;;23.70;74.80;;;;;;5059756;28;20212;-39
2023/06/18 05:04:05;;;;;;;7.63;5.72;;;23.70;74.90;;;;;;5061480;28;20720;-39
2023/06/18 05:06:34;;;;;;;6.35;5.75;;;23.70;74.90;;;;;;5060466;28;20223;-39
2023/06/18 05:09:07;;;;;;;7.10;5.53;;;23.70;74.80;;;;;;5059679;28;20207;-39
2023/06/18 05:11:34;;;;;;;6.13;5.53;;;23.70;74.80;;;;;;5061624;28;20199;-39
2023/06/18 05:14:03;;;;;;;6.00;5.40;;;23.70;74.80;;;;;;5053460;28;20235;-39
2023/06/18 05:16:30;;;;;;;6.28;5.32;;;23.70;74.90;;;;;;5044034;28;20281;-39
2023/06/18 05:18:57;;;;;;;6.45;5.45;;;23.70;74.90;;;;;;5063172;28;20916;-39
2023/06/18 05:21:27;;;;;;;6.57;5.97;;;23.70;75.00;;;;;;5060838;28;20251;-39
2023/06/18 05:23:54;;;;;;;6.47;5.22;;;23.70;75.00;;;;;;5089325;28;20219;-39
2023/06/18 05:26:26;;;;;;;5.30;4.78;;;23.70;75.00;;;;;;5075423;28;20242;-39
2023/06/18 05:28:56;;;;;;;7.05;5.30;;;23.70;75.00;;;;;;5059575;28;20216;-39
2023/06/18 05:31:24;;;;;;;5.43;5.00;;;23.60;74.90;;;;;;5076952;28;20233;-39
2023/06/18 05:33:51;;;;;;;8.70;5.00;;;23.60;74.90;;;;;;5093948;28;20211;-39
2023/06/18 05:36:24;;;;;;;5.53;4.90;;;23.70;75.00;;;;;;5061144;28;20678;-39
2023/06/18 05:38:53;;;;;;;5.95;5.35;;;23.70;74.90;;;;;;5061731;28;20529;-33
2023/06/18 05:41:22;;;;;;;7.10;4.97;;;23.70;74.90;;;;;;5090008;28;20221;-33
2023/06/18 05:43:54;;;;;;;7.78;5.00;;;23.70;74.80;;;;;;5049387;28;20223;-34
2023/06/18 05:46:24;;;;;;;5.72;5.22;;;23.70;74.80;;;;;;5056869;28;20284;-33
2023/06/18 05:48:53;;;;;;;5.93;5.30;;;23.70;74.80;;;;;;5055217;28;20326;-33
2023/06/18 05:51:23;;;;;;;6.00;5.38;;;23.60;74.60;;;;;;5055619;28;20549;-33
2023/06/18 05:53:50;;;;;;;5.75;5.25;;;23.60;74.60;;;;;;5062653;28;20661;-33
2023/06/18 05:56:19;;;;;;;5.63;5.00;;;23.60;74.60;;;;;;5061048;28;20223;-33
2023/06/18 05:58:47;;;;;;;6.03;5.22;;;23.60;74.60;;;;;;5054604;28;20204;-33
2023/06/18 06:01:14;;;;;;;6.78;5.60;;;23.60;74.70;;;;;;5082951;28;20200;-33
2023/06/18 06:03:48;;;;;;;7.32;5.22;;;23.70;74.70;;;;;;5059543;28;20203;-34
2023/06/18 06:06:17;;;;;;;7.78;5.28;;;23.70;74.80;;;;;;5061693;28;20284;-33
2023/06/18 06:08:44;;;;;;;6.85;5.32;;;23.70;74.80;;;;;;5060619;28;20217;-33
2023/06/18 06:11:14;;;;;;;5.50;5.00;;;23.70;74.80;;;;;;5090823;28;20780;-33
2023/06/18 06:13:43;;;;;;;7.55;5.53;;;23.70;74.80;;;;;;5090313;28;20285;-33
2023/06/18 06:16:11;;;;;;;6.85;5.90;;;23.80;75.00;;;;;;5089112;28;20288;-33
2023/06/18 06:18:38;;;;;;;8.20;5.28;;;23.90;75.20;;;;;;5077157;28;20261;-33
2023/06/18 06:21:10;;;;;;;5.13;4.60;;;23.90;75.30;;;;;;5091236;28;20265;-33
2023/06/18 06:23:37;;;;;;;6.13;5.55;;;24.00;75.50;;;;;;5059729;28;20292;-33
2023/06/18 06:26:05;;;;;;;6.28;5.13;;;24.00;75.70;;;;;;5059970;28;20689;-33
2023/06/18 06:28:34;;;;;;;5.65;4.47;;;24.10;75.80;;;;;;5060297;28;20277;-33
2023/06/18 06:31:07;;;;;;;5.65;4.90;;;24.20;75.90;;;;;;5075958;28;20573;-33
2023/06/18 06:33:34;;;;;;;6.10;4.90;;;24.30;76.20;;;;;;5058259;28;20237;-34
2023/06/18 06:36:01;;;;;;;5.50;5.00;;;24.30;76.10;;;;;;5094043;28;20212;-33
2023/06/18 06:38:29;;;;;;;6.78;4.90;;;24.40;76.30;;;;;;5061982;28;20242;-33
2023/06/18 06:40:56;;;;;;;5.80;4.80;;;24.50;76.60;;;;;;5055508;28;20281;-33
2023/06/18 06:43:23;;;;;;;5.72;4.85;;;24.60;76.70;;;;;;5093005;28;20311;-33
2023/06/18 06:45:52;;;;;;;5.57;5.07;;;24.70;77.00;;;;;;5058847;28;20204;-33
2023/06/18 06:48:20;;;;;;;5.75;5.25;;;24.70;77.00;;;;;;5057396;28;20968;-39
2023/06/18 06:50:49;;;;;;;5.47;4.80;;;24.80;77.20;;;;;;5063054;28;20873;-33
2023/06/18 06:53:17;;;;;;;6.22;5.00;;;24.80;77.30;;;;;;5093398;28;20677;-33
2023/06/18 06:55:44;;;;;;;5.72;4.60;;;24.90;77.60;;;;;;5059052;28;20314;-33
2023/06/18 06:58:13;;;;;;;7.45;5.13;;;24.90;77.70;;;;;;5075693;28;20291;-33
2023/06/18 07:00:46;;;;;;;7.20;6.05;;;25.00;78.10;;;;;;5062276;28;20575;-34
2023/06/18 07:03:15;;;;;;;8.68;5.15;;;25.00;78.50;;;;;;5048173;28;20269;-33
2023/06/18 07:05:43;;;;;;;5.40;4.90;;;25.10;78.50;;;;;;5058111;28;20641;-33
2023/06/18 07:08:10;;;;;;;6.00;5.03;;;25.10;78.60;;;;;;5098016;28;20223;-33
2023/06/18 07:10:45;;;;;;;6.85;4.88;;;25.10;78.80;;;;;;5051723;28;20202;-36
2023/06/18 07:13:18;;;;;;;5.20;4.70;;;25.20;79.30;;;;;;5066198;28;20227;-34
2023/06/18 07:15:47;;;;;;;9.55;4.95;;;25.20;79.40;;;;;;5064179;28;20212;-34
2023/06/18 07:18:17;;;;;;;7.55;5.22;;;25.20;80.00;;;;;;5066211;28;20221;-34
2023/06/18 07:20:44;;;;;;;5.38;4.85;;;25.20;80.10;;;;;;5062626;28;20579;-33
2023/06/18 07:23:14;;;;;;;5.80;4.95;;;25.20;81.10;;;;;;5077619;28;20234;-33
2023/06/18 07:25:41;;;;;;;8.30;6.10;;;25.20;80.70;;;;;;5054570;28;20215;-33
2023/06/18 07:28:13;;;;;;;6.20;5.60;;;25.20;81.10;;;;;;5090533;28;20219;-33
2023/06/18 07:30:41;;;;;;;6.20;5.60;;;25.20;81.30;;;;;;5097574;27;20291;-33
2023/06/18 07:33:10;;;;;;;7.05;5.68;;;25.20;81.50;;;;;;5066065;28;20214;-33
2023/06/18 07:35:38;;;;;;;6.50;5.32;;;25.20;81.70;;;;;;5064552;28;20483;-33
2023/06/18 07:38:05;;;;;;;6.30;5.63;;;25.10;82.10;;;;;;5053063;28;20204;-33
2023/06/18 07:40:33;;;;;;;6.45;5.80;;;25.20;82.70;;;;;;5076811;28;20673;-33
2023/06/18 07:43:03;;;;;;;7.00;5.60;;;25.10;83.00;;;;;;5063319;28;20223;-33
2023/06/18 07:45:30;;;;;;;6.72;5.45;;;25.10;83.10;;;;;;5096928;28;20676;-33
2023/06/18 07:48:00;;;;;;;7.13;5.43;;;25.10;83.30;;;;;;5062492;28;20242;-33
2023/06/18 07:50:27;;;;;;;6.53;5.78;;;25.10;83.90;;;;;;5064445;28;20211;-38
2023/06/18 07:52:55;;;;;;;7.30;5.90;;;25.10;84.20;;;;;;5096250;28;20212;-39
2023/06/18 07:55:25;;;;;;;7.22;5.80;;;25.10;84.60;;;;;;5095410;28;20294;-39
2023/06/18 07:57:55;;;;;;;7.97;6.15;;;25.10;84.90;;;;;;5050328;28;20852;-39
2023/06/18 08:00:23;;;;;;;6.95;6.03;;;25.10;85.10;;;;;;5050232;28;20258;-39
2023/06/18 08:02:53;;;;;;;6.00;5.40;;;25.10;85.40;;;;;;5064696;28;20214;-39
2023/06/18 08:05:22;;;;;;;6.60;5.68;;;25.00;85.20;;;;;;5056383;28;20649;-39
2023/06/18 08:07:50;;;;;;;6.78;6.00;;;25.00;85.30;;;;;;5096774;28;20219;-38
2023/06/18 08:10:17;;;;;;;6.88;6.28;;;25.00;85.30;;;;;;5062033;28;20657;-40
2023/06/18 08:12:46;;;;;;;6.50;5.82;;;25.00;85.50;;;;;;5061013;28;20298;-33
2023/06/18 08:15:16;;;;;;;6.95;6.20;;;24.90;85.40;;;;;;5063578;28;20210;-33
2023/06/18 08:17:48;;;;;;;6.65;5.95;;;24.90;85.50;;;;;;5064181;28;20389;-33
2023/06/18 08:20:16;;;;;;;6.70;5.95;;;24.90;85.70;;;;;;5064590;28;20239;-33
2023/06/18 08:22:43;;;;;;;6.30;5.70;;;24.90;86.00;;;;;;5061671;28;20247;-33
2023/06/18 08:25:10;;;;;;;7.30;5.88;;;24.90;86.10;;;;;;5093782;28;20291;-34
2023/06/18 08:27:42;;;;;;;6.35;5.75;;;24.80;86.30;;;;;;5092946;28;20231;-33
2023/06/18 08:30:13;;;;;;;7.05;5.85;;;24.80;86.20;;;;;;5059617;28;21108;-33
2023/06/18 08:32:40;;;;;;;8.32;6.20;;;24.80;86.30;;;;;;5063213;28;20206;-33
2023/06/18 08:35:08;;;;;;;7.15;6.18;;;24.80;86.40;;;;;;5095988;28;20617;-33
2023/06/18 08:37:38;;;;;;;6.53;5.93;;;24.80;86.50;;;;;;5062916;28;20218;-33
2023/06/18 08:40:12;;;;;;;6.13;5.55;;;24.80;86.70;;;;;;5093583;28;20358;-39
2023/06/18 08:42:39;;;;;;;7.30;6.28;;;24.90;87.10;;;;;;5061332;28;20218;-39
2023/06/18 08:45:17;;;;;;;7.07;6.38;;;24.90;87.40;;;;;;5062334;28;20219;-33
2023/06/18 08:47:53;;;;;;;7.10;5.78;;;24.90;87.40;;;;;;5058866;28;20313;-38
2023/06/18 08:50:20;;;;;;;6.78;6.07;;;24.90;87.60;;;;;;5093304;28;20227;-37
2023/06/18 08:52:58;;;;;;;8.55;6.65;;;25.00;87.80;;;;;;5061020;28;20328;-37
2023/06/18 08:55:28;;;;;;;6.97;6.10;;;25.00;87.80;;;;;;5077221;28;20198;-37
2023/06/18 08:57:59;;;;;;;5.90;5.40;;;25.00;87.80;;;;;;5093594;28;20254;-38
2023/06/18 09:00:31;;;;;;;7.15;6.07;;;25.10;87.80;;;;;;5060768;28;20639;-38
2023/06/18 09:02:59;;;;;;;6.70;5.90;;;25.20;88.10;;;;;;5063080;28;20560;-37
2023/06/18 09:05:27;;;;;;;6.10;5.50;;;25.30;88.20;;;;;;5075908;28;20294;-37
2023/06/18 09:07:57;;;;;;;7.15;5.90;;;25.30;88.00;;;;;;5061731;28;20227;-38
2023/06/18 09:10:25;;;;;;;7.10;6.20;;;25.40;88.30;;;;;;5058795;28;20737;-37
2023/06/18 09:12:53;;;;;;;6.45;5.90;;;25.40;88.30;;;;;;5092448;28;20737;-37
2023/06/18 09:15:20;;;;;;;6.13;5.40;;;25.50;88.60;;;;;;5092354;28;20196;-37
2023/06/18 09:17:51;;;;;;;6.65;5.97;;;25.50;88.50;;;;;;5094236;28;20208;-37
2023/06/18 09:20:20;;;;;;;6.53;5.93;;;25.50;88.40;;;;;;5061749;28;20238;-37
2023/06/18 09:22:50;;;;;;;7.10;6.05;;;25.60;88.80;;;;;;5088592;28;20235;-37
2023/06/18 09:25:21;;;;;;;6.75;6.15;;;25.60;88.90;;;;;;5059913;28;20235;-38
2023/06/18 09:27:55;;;;;;;6.75;5.63;;;25.60;88.90;;;;;;5060226;28;20653;-38
2023/06/18 09:30:24;;;;;;;6.13;5.55;;;25.70;89.20;;;;;;5056650;28;20208;-38
2023/06/18 09:32:57;;;;;;;6.82;6.22;;;25.70;89.40;;;;;;5064044;28;20661;-38
2023/06/18 09:35:29;;;;;;;6.50;5.90;;;25.70;89.30;;;;;;5062947;28;20196;-38
2023/06/18 09:38:10;;;;;;;7.63;6.82;;;25.80;89.50;;;;;;5094559;28;20223;-42
2023/06/18 09:40:41;;;;;;;6.82;6.13;;;25.80;90.20;;;;;;5087803;28;20207;-37
2023/06/18 09:43:10;;;;;;;6.35;5.78;;;25.80;89.70;;;;;;5060159;28;20269;-37
2023/06/18 09:45:40;;;;;;;6.78;6.13;;;25.80;89.70;;;;;;5061854;28;20568;-37
2023/06/18 09:48:07;;;;;;;7.28;6.25;;;25.80;89.70;;;;;;5062189;28;20215;-37
2023/06/18 09:50:36;;;;;;;8.05;6.60;;;25.90;89.90;;;;;;5041420;28;20646;-36
2023/06/18 09:53:21;;;;;;;7.63;6.18;;;25.90;90.10;;;;;;5077539;28;20632;-36
2023/06/18 09:55:51;;;;;;;6.68;6.07;;;25.90;90.20;;;;;;5047962;28;20204;-36
2023/06/18 09:58:18;;;;;;;8.50;6.38;;;25.90;90.00;;;;;;5071639;28;20617;-36
2023/06/18 10:01:06;;;;;;;7.43;6.63;;;25.90;90.10;;;;;;5046730;28;20725;-37
2023/06/18 10:03:33;;;;;;;8.07;6.80;;;25.90;90.50;;;;;;5058109;28;20255;-37
2023/06/18 10:06:19;;;;;;;6.75;6.15;;;25.90;90.30;;;;;;5060569;28;20710;-36
2023/06/18 10:08:49;;;;;;;6.93;6.32;;;26.00;90.40;;;;;;5056336;28;20295;-36
2023/06/18 10:11:17;;;;;;;8.05;7.25;;;26.00;90.40;;;;;;5057817;28;20700;-37
2023/06/18 10:13:51;;;;;;;6.68;6.07;;;26.00;90.50;;;;;;5060412;28;20231;-36
2023/06/18 10:16:22;;;;;;;7.30;6.35;;;26.10;90.60;;;;;;5057004;28;20245;-37
2023/06/18 10:19:27;;;;;;;7.82;6.38;;;26.10;90.60;;;;;;5056645;28;20207;-36
2023/06/18 10:22:05;;;;;;;8.07;6.75;;;26.20;90.90;;;;;;5052864;28;20360;-37
2023/06/18 10:24:38;;;;;;;7.45;6.85;;;26.20;90.70;;;;;;5055441;28;20310;-37
2023/06/18 10:27:06;;;;;;;7.40;6.70;;;26.30;90.80;;;;;;5093740;28;20242;-37
2023/06/18 10:29:33;;;;;;;7.68;6.97;;;26.30;90.70;;;;;;5060257;28;20330;-37
2023/06/18 10:32:06;;;;;;;7.65;6.50;;;26.40;90.80;;;;;;5076492;28;20195;-37
2023/06/18 10:34:34;;;;;;;8.75;7.00;;;26.40;90.80;;;;;;5076485;28;20208;-37
2023/06/18 10:37:07;;;;;;;7.97;7.20;;;26.50;90.80;;;;;;5095470;28;20294;-37
2023/06/18 10:39:35;;;;;;;8.52;7.03;;;26.60;90.90;;;;;;5063393;28;20218;-37
2023/06/18 10:42:13;;;;;;;7.65;6.95;;;26.60;90.80;;;;;;5060186;28;20612;-37
2023/06/18 10:44:52;;;;;;;8.60;7.18;;;26.70;91.00;;;;;;5052277;28;20219;-37
2023/06/18 10:47:22;;;;;;;7.35;6.75;;;26.80;91.10;;;;;;5063647;28;20517;-37
2023/06/18 10:50:05;;;;;;;8.45;7.32;;;26.80;91.00;;;;;;5064557;28;20230;-38
2023/06/18 10:52:38;;;;;;;8.02;7.22;;;26.90;91.20;;;;;;5064356;28;20203;-38
2023/06/18 10:55:24;;;;;;;8.05;7.35;;;27.00;91.00;;;;;;5062984;28;20207;-38
2023/06/18 10:58:05;;;;;;;7.65;6.90;;;27.00;91.10;;;;;;5064244;28;20222;-38
2023/06/18 11:00:40;;;;;;;6.55;6.03;;;27.10;91.10;;;;;;5062913;28;20688;-38
2023/06/18 11:03:19;;;;;;;7.28;6.10;;;27.20;91.10;;;;;;5060659;28;20721;-38
2023/06/18 11:05:53;;;;;;;6.88;6.28;;;27.20;91.00;;;;;;5059210;28;20226;-38
2023/06/18 11:08:33;;;;;;;6.78;6.20;;;27.20;90.90;;;;;;5071912;28;20225;-38
2023/06/18 11:11:07;;;;;;;6.75;6.15;;;27.20;90.90;;;;;;5058673;28;20222;-38
2023/06/18 11:13:40;;;;;;;6.93;6.28;;;27.30;90.90;;;;;;5096427;28;20303;-38
2023/06/18 11:16:09;;;;;;;7.88;6.65;;;27.30;90.80;;;;;;5062461;28;20264;-38
2023/06/18 11:18:39;;;;;;;7.35;6.60;;;27.30;90.60;;;;;;5065145;28;20212;-38
2023/06/18 11:21:15;;;;;;;7.32;6.63;;;27.20;90.30;;;;;;5065129;28;20245;-38
2023/06/18 11:23:47;;;;;;;8.27;6.47;;;27.10;90.30;;;;;;5093268;28;20252;-38
2023/06/18 11:26:19;;;;;;;7.05;6.38;;;27.10;90.20;;;;;;5059152;28;20299;-38
2023/06/18 11:28:47;;;;;;;6.65;6.05;;;27.10;90.30;;;;;;5096865;28;20606;-38
2023/06/18 11:31:16;;;;;;;6.63;6.03;;;27.10;90.30;;;;;;5094292;28;20326;-38
2023/06/18 11:33:47;;;;;;;7.82;5.97;;;27.20;90.30;;;;;;5065425;28;20284;-38
2023/06/18 11:36:20;;;;;;;6.82;6.03;;;27.30;90.30;;;;;;5095351;28;20475;-37
2023/06/18 11:38:51;;;;;;;7.03;6.43;;;27.30;90.40;;;;;;5061235;28;21861;-38
2023/06/18 11:41:24;;;;;;;7.50;6.50;;;27.40;90.30;;;;;;5060753;28;20308;-38
2023/06/18 11:43:57;;;;;;;7.00;6.28;;;27.50;90.30;;;;;;5061577;28;20670;-38
2023/06/18 11:46:35;;;;;;;7.13;6.43;;;27.50;90.20;;;;;;5062345;28;20219;-38
2023/06/18 11:49:05;;;;;;;6.97;6.15;;;27.50;90.20;;;;;;5044448;28;20230;-38
2023/06/18 11:51:32;;;;;;;12.30;7.75;;;27.60;90.20;;;;;;5069789;28;20202;-38
2023/06/18 11:54:02;;;;;;;11.65;7.95;;;27.60;90.20;;;;;;5084867;28;20196;-39
2023/06/18 11:56:36;;;;;;;6.90;6.28;;;27.70;90.20;;;;;;5052945;28;20273;-38
2023/06/18 11:59:05;;;;;;;6.97;6.28;;;27.70;90.10;;;;;;5052428;28;20657;-38
2023/06/18 12:01:38;;;;;;;7.32;6.63;;;27.70;90.10;;;;;;5054316;28;20203;-38
2023/06/18 12:04:07;;;;;;;7.22;6.50;;;27.70;90.10;;;;;;5058841;28;20286;-38
2023/06/18 12:06:37;;;;;;;8.20;7.38;;;27.80;90.10;;;;;;5087827;28;20203;-38
2023/06/18 12:09:07;;;;;;;6.32;5.72;;;27.80;90.00;;;;;;5063503;28;20223;-38
2023/06/18 12:12:07;;;;;;;7.70;6.90;;;27.80;90.00;;;;;;5095557;28;20206;-39
2023/06/18 12:14:40;;;;;;;7.40;6.60;;;27.90;90.00;;;;;;5061303;28;20216;-37
2023/06/18 12:17:22;;;;;;;7.28;6.60;;;27.90;90.00;;;;;;5053447;28;20219;-37
2023/06/18 12:20:15;;;;;;;7.97;6.85;;;27.90;90.30;;;;;;5059596;28;20203;-37
2023/06/18 12:22:43;;;;;;;7.70;6.20;;;27.90;89.70;;;;;;5056515;28;20266;-38
2023/06/18 12:25:14;;;;;;;6.82;6.22;;;27.80;89.40;;;;;;5076111;28;20310;-39
2023/06/18 12:27:44;;;;;;;7.93;6.30;;;27.80;89.30;;;;;;5059957;28;20215;-38
2023/06/18 12:30:13;;;;;;;6.57;6.07;;;27.80;89.20;;;;;;5091670;28;20215;-38
2023/06/18 12:32:40;;;;;;;6.75;6.15;;;27.80;89.20;;;;;;5062043;28;20303;-38
2023/06/18 12:35:19;;;;;;;6.20;5.60;;;27.80;89.20;;;;;;5062703;28;20206;-38
2023/06/18 12:37:51;;;;;;;9.82;6.35;;;27.80;89.30;;;;;;5060612;28;20537;-38
2023/06/18 12:40:23;;;;;;;7.20;6.50;;;27.80;89.30;;;;;;5059545;28;20257;-38
2023/06/18 12:42:54;;;;;;;6.95;6.28;;;27.80;89.70;;;;;;5058482;28;20576;-38
2023/06/18 12:45:25;;;;;;;6.82;6.13;;;27.90;89.80;;;;;;5093150;28;20665;-38
2023/06/18 12:47:59;;;;;;;6.15;5.65;;;27.90;90.00;;;;;;5058379;28;20790;-37
2023/06/18 12:50:39;;;;;;;8.13;6.40;;;28.00;90.10;;;;;;5050453;28;20614;-37
2023/06/18 12:53:17;;;;;;;6.78;6.13;;;28.00;90.30;;;;;;5072092;28;20204;-37
2023/06/18 12:55:47;;;;;;;6.32;5.80;;;28.10;90.30;;;;;;5054831;28;20242;-37
2023/06/18 12:58:24;;;;;;;8.40;5.97;;;28.20;90.40;;;;;;5061168;28;20215;-37
2023/06/18 13:00:53;;;;;;;6.75;6.15;;;28.20;90.30;;;;;;5060679;28;20212;-37
2023/06/18 13:03:22;;;;;;;6.68;6.07;;;28.30;90.30;;;;;;5054961;28;20220;-37